Time;durP1;ratioP1;P1;durP2;ratioP2;P2;SDS_P1;SDS_P2;PMS_P1;PMS_P2;Temp;Humidity;BMP_temperature;BMP_pressure;BME280_temperature;BME280_humidity;BME280_pressure;Samples;Min_cycle;Max_cycle;Signal;HPM_P1;HPM_P2
2022/09/15 00:02:00;;;;;;;0.20;0.20;;;;;;;;;;5034097;28;20025;-68
2022/09/15 00:04:25;;;;;;;0.10;0.10;;;;;;;;;;5037394;28;20048;-69
2022/09/15 00:06:51;;;;;;;0.20;0.20;;;;;;;;;;5041585;28;20365;-69
2022/09/15 00:09:17;;;;;;;0.20;0.20;;;;;;;;;;5042926;28;20105;-69
2022/09/15 00:11:42;;;;;;;0.22;0.22;;;;;;;;;;5037025;28;20500;-69
2022/09/15 00:14:08;;;;;;;0.20;0.20;;;;;;;;;;5034139;28;20037;-69
2022/09/15 00:16:34;;;;;;;0.20;0.20;;;;;;;;;;5033777;28;20028;-68
2022/09/15 00:19:00;;;;;;;0.20;0.20;;;;;;;;;;5034056;28;20033;-68
2022/09/15 00:21:28;;;;;;;0.20;0.20;;;;;;;;;;5038692;28;20075;-69
2022/09/15 00:23:53;;;;;;;0.20;0.20;;;;;;;;;;5050730;28;20099;-70
2022/09/15 00:26:20;;;;;;;0.20;0.20;;;;;;;;;;5034319;28;20527;-70
2022/09/15 00:28:46;;;;;;;0.20;0.20;;;;;;;;;;5033846;28;20069;-69
2022/09/15 00:31:13;;;;;;;0.20;0.20;;;;;;;;;;5033275;28;20076;-70
2022/09/15 00:33:38;;;;;;;0.20;0.20;;;;;;;;;;5033574;28;20079;-70
2022/09/15 00:36:05;;;;;;;0.38;0.38;;;;;;;;;;5015910;28;20025;-69
2022/09/15 00:38:31;;;;;;;0.20;0.20;;;;;;;;;;5033494;28;20021;-70
2022/09/15 00:40:58;;;;;;;0.20;0.20;;;;;;;;;;5016919;28;20034;-70
2022/09/15 00:43:42;;;;;;;0.68;0.68;;;;;;;;;;5033356;28;20029;-70
2022/09/15 00:46:08;;;;;;;0.28;0.28;;;;;;;;;;5033700;28;20044;-69
2022/09/15 00:48:34;;;;;;;0.20;0.20;;;;;;;;;;5033688;28;20034;-69
2022/09/15 00:51:00;;;;;;;0.20;0.20;;;;;;;;;;5033309;28;20037;-69
2022/09/15 00:53:26;;;;;;;0.30;0.30;;;;;;;;;;5033123;28;20046;-69
2022/09/15 00:55:52;;;;;;;0.20;0.20;;;;;;;;;;5034280;28;20033;-69
2022/09/15 00:58:30;;;;;;;0.17;0.17;;;;;;;;;;5033452;28;20025;-69
2022/09/15 01:00:57;;;;;;;0.20;0.20;;;;;;;;;;5033275;28;20375;-69
2022/09/15 01:03:24;;;;;;;0.15;0.15;;;;;;;;;;5033325;28;20516;-69
2022/09/15 01:05:53;;;;;;;0.17;0.17;;;;;;;;;;5032885;28;20044;-69
2022/09/15 01:08:37;;;;;;;0.20;0.20;;;;;;;;;;5032611;28;20057;-69
2022/09/15 01:11:03;;;;;;;0.20;0.20;;;;;;;;;;5033274;28;20041;-69
2022/09/15 01:13:31;;;;;;;0.20;0.20;;;;;;;;;;5014583;28;20088;-69
2022/09/15 01:16:00;;;;;;;0.22;0.22;;;;;;;;;;5033008;28;20036;-69
2022/09/15 01:18:25;;;;;;;1.13;1.02;;;;;;;;;;5034627;28;20045;-69
2022/09/15 01:20:54;;;;;;;0.20;0.20;;;;;;;;;;5036972;28;20029;-69
2022/09/15 01:23:32;;;;;;;0.20;0.20;;;;;;;;;;5019768;28;20018;-69
2022/09/15 01:26:00;;;;;;;0.15;0.15;;;;;;;;;;5038033;28;20033;-68
2022/09/15 01:28:35;;;;;;;0.20;0.20;;;;;;;;;;5036250;28;20063;-69
2022/09/15 01:31:10;;;;;;;0.20;0.20;;;;;;;;;;5036590;28;20484;-69
2022/09/15 01:33:39;;;;;;;0.30;0.30;;;;;;;;;;5037161;28;20465;-69
2022/09/15 01:36:07;;;;;;;0.20;0.20;;;;;;;;;;5037043;28;20040;-69
2022/09/15 01:39:08;;;;;;;0.30;0.30;;;;;;;;;;5037648;28;20380;-70
2022/09/15 01:41:36;;;;;;;0.30;0.30;;;;;;;;;;4956341;29;20039;-70
2022/09/15 01:44:09;;;;;;;0.10;0.10;;;;;;;;;;5021269;28;20030;-69
2022/09/15 01:46:36;;;;;;;0.20;0.20;;;;;;;;;;5036857;28;20029;-69
2022/09/15 01:49:03;;;;;;;0.20;0.20;;;;;;;;;;5036821;28;20385;-69
2022/09/15 01:51:30;;;;;;;1.92;0.85;;;;;;;;;;5035335;28;20036;-69
2022/09/15 01:53:58;;;;;;;0.10;0.10;;;;;;;;;;5018838;28;20381;-69
2022/09/15 01:56:23;;;;;;;0.47;0.47;;;;;;;;;;5018683;28;20096;-69
2022/09/15 01:58:50;;;;;;;0.13;0.13;;;;;;;;;;5036548;28;20071;-69
2022/09/15 02:01:18;;;;;;;0.10;0.10;;;;;;;;;;5036049;28;20029;-69
2022/09/15 02:04:10;;;;;;;0.20;0.20;;;;;;;;;;5036247;28;20064;-69
2022/09/15 02:06:45;;;;;;;0.20;0.20;;;;;;;;;;5032657;28;20049;-69
2022/09/15 02:09:12;;;;;;;0.10;0.10;;;;;;;;;;5036923;28;20088;-69
2022/09/15 02:11:43;;;;;;;0.20;0.20;;;;;;;;;;5035964;28;20041;-69
2022/09/15 02:14:12;;;;;;;6.13;1.02;;;;;;;;;;5036295;28;20075;-69
2022/09/15 02:16:39;;;;;;;0.20;0.20;;;;;;;;;;5036109;28;20045;-69
2022/09/15 02:19:09;;;;;;;2.08;1.98;;;;;;;;;;5036024;28;20108;-69
2022/09/15 02:21:47;;;;;;;2.42;1.13;;;;;;;;;;5035888;28;20029;-69
2022/09/15 02:24:17;;;;;;;0.10;0.10;;;;;;;;;;5036250;28;20033;-69
2022/09/15 02:26:45;;;;;;;0.20;0.20;;;;;;;;;;5036947;28;20048;-68
2022/09/15 02:29:12;;;;;;;0.30;0.30;;;;;;;;;;5035422;28;20029;-69
2022/09/15 02:31:38;;;;;;;0.20;0.20;;;;;;;;;;5035668;28;20033;-69
2022/09/15 02:34:24;;;;;;;0.20;0.20;;;;;;;;;;5018074;28;20533;-69
2022/09/15 02:36:51;;;;;;;0.20;0.20;;;;;;;;;;5035104;28;20045;-68
2022/09/15 02:39:18;;;;;;;0.10;0.10;;;;;;;;;;5036503;28;20104;-68
2022/09/15 02:41:44;;;;;;;0.38;0.38;;;;;;;;;;5035687;28;20037;-68
2022/09/15 02:44:09;;;;;;;0.20;0.20;;;;;;;;;;5035544;28;20028;-69
2022/09/15 02:46:35;;;;;;;0.20;0.20;;;;;;;;;;5035440;28;20033;-68
2022/09/15 02:49:01;;;;;;;0.20;0.20;;;;;;;;;;5035521;28;20041;-69
2022/09/15 02:51:26;;;;;;;0.20;0.20;;;;;;;;;;5035464;28;20029;-69
2022/09/15 02:53:53;;;;;;;0.30;0.30;;;;;;;;;;5001324;28;20034;-68
2022/09/15 02:56:19;;;;;;;0.20;0.20;;;;;;;;;;5035406;28;20040;-69
2022/09/15 02:58:45;;;;;;;0.20;0.20;;;;;;;;;;5036080;28;20056;-69
2022/09/15 03:01:14;;;;;;;0.35;0.35;;;;;;;;;;5034704;28;20030;-68
2022/09/15 03:03:41;;;;;;;0.20;0.20;;;;;;;;;;5044404;28;20464;-69
2022/09/15 03:06:18;;;;;;;0.20;0.20;;;;;;;;;;5033696;28;20481;-68
2022/09/15 03:08:48;;;;;;;0.20;0.20;;;;;;;;;;5051215;28;20045;-69
2022/09/15 03:11:14;;;;;;;0.20;0.20;;;;;;;;;;5050282;28;20037;-69
2022/09/15 03:13:39;;;;;;;0.32;0.32;;;;;;;;;;5050708;28;20041;-69
2022/09/15 03:16:07;;;;;;;0.30;0.30;;;;;;;;;;5051384;28;20033;-69
2022/09/15 03:18:33;;;;;;;0.68;0.68;;;;;;;;;;5051049;28;20075;-69
2022/09/15 03:20:58;;;;;;;0.20;0.20;;;;;;;;;;5050855;28;20480;-68
2022/09/15 03:23:24;;;;;;;0.20;0.20;;;;;;;;;;5051524;28;20086;-68
2022/09/15 03:25:49;;;;;;;0.20;0.20;;;;;;;;;;5050772;28;20357;-69
2022/09/15 03:28:15;;;;;;;0.55;0.45;;;;;;;;;;5045670;28;20418;-69
2022/09/15 03:30:41;;;;;;;0.20;0.20;;;;;;;;;;5030781;28;20060;-69
2022/09/15 03:33:06;;;;;;;0.40;0.40;;;;;;;;;;5030574;28;20494;-69
2022/09/15 03:35:32;;;;;;;2.95;2.85;;;;;;;;;;5030660;28;20096;-69
2022/09/15 03:37:57;;;;;;;0.10;0.10;;;;;;;;;;5030727;28;20104;-69
2022/09/15 03:40:23;;;;;;;0.20;0.20;;;;;;;;;;5029834;28;20076;-69
2022/09/15 03:42:48;;;;;;;0.20;0.20;;;;;;;;;;5030541;28;20056;-69
2022/09/15 03:45:13;;;;;;;0.20;0.20;;;;;;;;;;5031650;28;20028;-68
2022/09/15 03:47:39;;;;;;;0.20;0.20;;;;;;;;;;5030442;28;20431;-69
2022/09/15 03:50:05;;;;;;;0.20;0.20;;;;;;;;;;5031117;28;20025;-68
2022/09/15 03:52:31;;;;;;;0.20;0.20;;;;;;;;;;5030320;28;20120;-69
2022/09/15 03:54:56;;;;;;;0.20;0.20;;;;;;;;;;5030624;28;20152;-68
2022/09/15 03:57:22;;;;;;;0.13;0.13;;;;;;;;;;5030109;28;20029;-69
2022/09/15 03:59:47;;;;;;;0.45;0.45;;;;;;;;;;5015533;28;20391;-70
2022/09/15 04:02:13;;;;;;;0.20;0.20;;;;;;;;;;5016164;28;20128;-70
2022/09/15 04:04:38;;;;;;;0.60;0.40;;;;;;;;;;5030193;28;20033;-69
2022/09/15 04:07:04;;;;;;;0.30;0.30;;;;;;;;;;5029707;28;20021;-70
2022/09/15 04:09:30;;;;;;;0.10;0.10;;;;;;;;;;5029317;28;20085;-70
2022/09/15 04:11:55;;;;;;;0.20;0.20;;;;;;;;;;5029460;28;20037;-71
2022/09/15 04:14:21;;;;;;;0.20;0.20;;;;;;;;;;5029672;28;20459;-70
2022/09/15 04:16:47;;;;;;;0.22;0.22;;;;;;;;;;5030709;28;20032;-70
2022/09/15 04:19:13;;;;;;;0.20;0.20;;;;;;;;;;5030439;28;20040;-70
2022/09/15 04:21:38;;;;;;;0.20;0.20;;;;;;;;;;5029954;28;20034;-69
2022/09/15 04:24:04;;;;;;;0.45;0.45;;;;;;;;;;5031844;28;20500;-69
2022/09/15 04:26:35;;;;;;;0.32;0.32;;;;;;;;;;5030255;28;20230;-67
2022/09/15 04:29:01;;;;;;;0.20;0.20;;;;;;;;;;5029791;28;20842;-68
2022/09/15 04:31:26;;;;;;;0.20;0.20;;;;;;;;;;5029841;28;20080;-68
2022/09/15 04:33:53;;;;;;;0.28;0.28;;;;;;;;;;5030079;28;20061;-68
2022/09/15 04:36:20;;;;;;;0.20;0.20;;;;;;;;;;5029641;28;20028;-68
2022/09/15 04:38:46;;;;;;;0.20;0.20;;;;;;;;;;5030094;28;20036;-67
2022/09/15 04:41:12;;;;;;;0.38;0.38;;;;;;;;;;5029378;28;20391;-68
2022/09/15 04:43:37;;;;;;;0.20;0.20;;;;;;;;;;5029529;28;20132;-69
2022/09/15 04:46:03;;;;;;;0.20;0.20;;;;;;;;;;5030447;28;20108;-68
2022/09/15 04:48:29;;;;;;;0.28;0.28;;;;;;;;;;5029626;28;20523;-67
2022/09/15 04:50:59;;;;;;;0.17;0.17;;;;;;;;;;5030891;28;20360;-67
2022/09/15 04:53:25;;;;;;;0.57;0.57;;;;;;;;;;5048553;28;20041;-68
2022/09/15 04:55:50;;;;;;;0.35;0.35;;;;;;;;;;5036303;28;20033;-68
2022/09/15 04:58:16;;;;;;;0.20;0.20;;;;;;;;;;5029657;28;20021;-68
2022/09/15 05:00:44;;;;;;;0.20;0.20;;;;;;;;;;5036098;28;20029;-68
2022/09/15 05:03:11;;;;;;;0.20;0.20;;;;;;;;;;5037538;28;20025;-68
2022/09/15 05:05:36;;;;;;;0.32;0.32;;;;;;;;;;5034294;28;20026;-70
2022/09/15 05:08:02;;;;;;;0.30;0.30;;;;;;;;;;5030333;28;20056;-69
2022/09/15 05:10:27;;;;;;;0.30;0.30;;;;;;;;;;5038668;28;20117;-69
2022/09/15 05:12:53;;;;;;;0.20;0.20;;;;;;;;;;5049306;28;20033;-68
2022/09/15 05:15:23;;;;;;;0.20;0.20;;;;;;;;;;5046996;28;20064;-68
2022/09/15 05:17:48;;;;;;;0.30;0.30;;;;;;;;;;5030165;28;20037;-69
2022/09/15 05:20:14;;;;;;;0.20;0.20;;;;;;;;;;5028944;28;20025;-69
2022/09/15 05:22:39;;;;;;;0.20;0.20;;;;;;;;;;5029044;28;20029;-68
2022/09/15 05:25:05;;;;;;;0.20;0.20;;;;;;;;;;5029518;28;20067;-69
2022/09/15 05:27:31;;;;;;;0.20;0.20;;;;;;;;;;5029460;28;20902;-69
2022/09/15 05:29:57;;;;;;;0.20;0.20;;;;;;;;;;5031075;28;20448;-69
2022/09/15 05:32:22;;;;;;;0.20;0.20;;;;;;;;;;5036678;28;20132;-67
2022/09/15 05:34:48;;;;;;;0.20;0.20;;;;;;;;;;5029071;28;20030;-69
2022/09/15 05:37:13;;;;;;;0.20;0.20;;;;;;;;;;5040486;28;20419;-68
2022/09/15 05:39:39;;;;;;;0.20;0.20;;;;;;;;;;5048561;28;20090;-68
2022/09/15 05:42:05;;;;;;;0.20;0.20;;;;;;;;;;5031128;28;20025;-68
2022/09/15 05:44:31;;;;;;;0.20;0.20;;;;;;;;;;5030171;28;20085;-68
2022/09/15 05:46:56;;;;;;;0.20;0.20;;;;;;;;;;5047671;28;20029;-69
2022/09/15 05:49:22;;;;;;;0.20;0.20;;;;;;;;;;5029847;28;20060;-67
2022/09/15 05:51:47;;;;;;;0.20;0.20;;;;;;;;;;5044354;28;20045;-67
2022/09/15 05:54:13;;;;;;;0.20;0.20;;;;;;;;;;5047835;28;20116;-68
2022/09/15 05:56:38;;;;;;;0.20;0.20;;;;;;;;;;5047460;28;20017;-67
2022/09/15 05:59:04;;;;;;;0.20;0.20;;;;;;;;;;5048829;28;20059;-69
2022/09/15 06:01:30;;;;;;;0.20;0.20;;;;;;;;;;5048158;28;20055;-67
2022/09/15 06:03:56;;;;;;;0.20;0.20;;;;;;;;;;5049557;28;20032;-69
2022/09/15 06:06:22;;;;;;;0.20;0.20;;;;;;;;;;5017702;28;20032;-68
2022/09/15 06:08:49;;;;;;;0.20;0.20;;;;;;;;;;5052125;28;20049;-68
2022/09/15 06:11:16;;;;;;;0.30;0.30;;;;;;;;;;5052495;28;20040;-68
2022/09/15 06:13:42;;;;;;;0.20;0.20;;;;;;;;;;5052212;28;20159;-67
2022/09/15 06:16:11;;;;;;;0.30;0.30;;;;;;;;;;5045230;28;20132;-68
2022/09/15 06:18:38;;;;;;;0.20;0.20;;;;;;;;;;5029311;28;20025;-69
2022/09/15 06:21:08;;;;;;;0.20;0.20;;;;;;;;;;5017950;28;20029;-69
2022/09/15 06:23:34;;;;;;;0.20;0.20;;;;;;;;;;5034240;28;20088;-69
2022/09/15 06:26:07;;;;;;;0.25;0.25;;;;;;;;;;5052102;28;20100;-68
2022/09/15 06:28:32;;;;;;;0.20;0.20;;;;;;;;;;5052214;28;20032;-69
2022/09/15 06:30:58;;;;;;;0.20;0.20;;;;;;;;;;5052574;28;20044;-67
2022/09/15 06:33:24;;;;;;;0.20;0.20;;;;;;;;;;5052084;28;20144;-67
2022/09/15 06:35:49;;;;;;;0.20;0.20;;;;;;;;;;5052034;28;20179;-67
2022/09/15 06:38:15;;;;;;;0.20;0.20;;;;;;;;;;5051472;28;20029;-68
2022/09/15 06:40:40;;;;;;;0.20;0.20;;;;;;;;;;5051494;28;20111;-68
2022/09/15 06:43:06;;;;;;;0.20;0.20;;;;;;;;;;5034048;28;20029;-67
2022/09/15 06:45:31;;;;;;;0.20;0.20;;;;;;;;;;5033776;28;20460;-68
2022/09/15 06:47:57;;;;;;;0.30;0.30;;;;;;;;;;5051424;28;20028;-67
2022/09/15 06:50:23;;;;;;;0.20;0.20;;;;;;;;;;5051542;28;20028;-67
2022/09/15 06:52:48;;;;;;;0.22;0.22;;;;;;;;;;5033763;28;20036;-67
2022/09/15 06:55:14;;;;;;;0.30;0.30;;;;;;;;;;5051137;28;20021;-67
2022/09/15 06:57:39;;;;;;;0.20;0.20;;;;;;;;;;5051493;28;20036;-68
2022/09/15 07:00:06;;;;;;;0.20;0.20;;;;;;;;;;5051456;28;20484;-67
2022/09/15 07:02:32;;;;;;;0.22;0.22;;;;;;;;;;5051629;28;20021;-67
2022/09/15 07:04:59;;;;;;;2.83;1.50;;;;;;;;;;5051366;28;20021;-67
2022/09/15 07:07:26;;;;;;;;;;;;;;;;;;5051559;28;20410;-67
2022/09/15 07:09:52;;;;;;;0.20;0.20;;;;;;;;;;5051065;28;19916;-67
2022/09/15 07:12:17;;;;;;;0.20;0.20;;;;;;;;;;5051435;28;20291;-67
2022/09/15 07:14:43;;;;;;;0.20;0.20;;;;;;;;;;5051096;28;20071;-68
2022/09/15 07:17:08;;;;;;;0.20;0.20;;;;;;;;;;5016940;28;20021;-68
2022/09/15 07:19:34;;;;;;;0.30;0.30;;;;;;;;;;5050532;28;20952;-68
2022/09/15 07:21:59;;;;;;;0.20;0.20;;;;;;;;;;5051123;28;20071;-68
2022/09/15 07:24:25;;;;;;;0.30;0.30;;;;;;;;;;5041159;28;20104;-67
2022/09/15 07:26:50;;;;;;;0.20;0.20;;;;;;;;;;5030088;28;20082;-67
2022/09/15 07:29:16;;;;;;;0.20;0.20;;;;;;;;;;5050910;28;20044;-67
2022/09/15 07:31:41;;;;;;;0.20;0.20;;;;;;;;;;5050392;28;20036;-67
2022/09/15 07:34:07;;;;;;;0.68;0.52;;;;;;;;;;5050800;28;20048;-67
2022/09/15 07:36:32;;;;;;;0.32;0.32;;;;;;;;;;5032547;28;20392;-68
2022/09/15 07:38:58;;;;;;;0.20;0.20;;;;;;;;;;5050498;28;20367;-68
2022/09/15 07:41:24;;;;;;;0.20;0.20;;;;;;;;;;5051135;28;20295;-68
2022/09/15 07:43:51;;;;;;;0.20;0.20;;;;;;;;;;5050314;28;20098;-67
2022/09/15 07:46:17;;;;;;;0.20;0.20;;;;;;;;;;5050479;28;20052;-66
2022/09/15 07:48:46;;;;;;;0.52;0.50;;;;;;;;;;5050488;28;20047;-67
2022/09/15 07:51:11;;;;;;;0.20;0.20;;;;;;;;;;5050768;28;20086;-68
2022/09/15 07:53:37;;;;;;;0.20;0.20;;;;;;;;;;5049970;28;20024;-68
2022/09/15 07:56:02;;;;;;;0.20;0.20;;;;;;;;;;5050716;28;20416;-68
2022/09/15 07:58:28;;;;;;;0.10;0.10;;;;;;;;;;5032820;28;20031;-67
2022/09/15 08:00:53;;;;;;;0.52;0.52;;;;;;;;;;5015835;28;20067;-68
2022/09/15 08:03:19;;;;;;;0.28;0.20;;;;;;;;;;5050378;28;20372;-66
2022/09/15 08:05:45;;;;;;;0.20;0.20;;;;;;;;;;5049694;28;20691;-68
2022/09/15 08:08:10;;;;;;;0.15;0.15;;;;;;;;;;5049923;28;20036;-68
2022/09/15 08:10:37;;;;;;;0.20;0.20;;;;;;;;;;5031902;28;20078;-70
2022/09/15 08:13:03;;;;;;;0.20;0.20;;;;;;;;;;5049961;28;20032;-68
2022/09/15 08:15:30;;;;;;;0.20;0.20;;;;;;;;;;5031822;28;20514;-68
2022/09/15 08:17:56;;;;;;;0.17;0.17;;;;;;;;;;5047583;28;20277;-68
2022/09/15 08:20:21;;;;;;;0.20;0.20;;;;;;;;;;5046678;28;20052;-70
2022/09/15 08:22:47;;;;;;;0.20;0.20;;;;;;;;;;5045600;28;20480;-68
2022/09/15 08:25:12;;;;;;;0.35;0.30;;;;;;;;;;5047233;28;20037;-68
2022/09/15 08:27:38;;;;;;;0.20;0.20;;;;;;;;;;5049117;28;20527;-68
2022/09/15 08:30:04;;;;;;;0.20;0.20;;;;;;;;;;5049395;28;20017;-69
2022/09/15 08:32:30;;;;;;;0.17;0.17;;;;;;;;;;5042036;28;20035;-68
2022/09/15 08:34:56;;;;;;;0.20;0.20;;;;;;;;;;5049500;28;20055;-68
2022/09/15 08:37:21;;;;;;;0.20;0.20;;;;;;;;;;5049899;28;20226;-69
2022/09/15 08:39:47;;;;;;;0.20;0.20;;;;;;;;;;5036941;28;20103;-69
2022/09/15 08:42:17;;;;;;;0.20;0.20;;;;;;;;;;5029551;28;20087;-70
2022/09/15 08:44:46;;;;;;;0.40;0.40;;;;;;;;;;5009838;28;20036;-69
2022/09/15 08:47:19;;;;;;;0.30;0.30;;;;;;;;;;5027446;28;20067;-69
2022/09/15 08:50:00;;;;;;;0.25;0.25;;;;;;;;;;5027282;28;20033;-69
2022/09/15 08:52:29;;;;;;;0.20;0.20;;;;;;;;;;5039179;28;20484;-69
2022/09/15 08:54:56;;;;;;;0.40;0.40;;;;;;;;;;5048296;28;20930;-69
2022/09/15 08:57:24;;;;;;;0.20;0.20;;;;;;;;;;5048480;28;20107;-69
2022/09/15 08:59:50;;;;;;;0.20;0.20;;;;;;;;;;5047907;28;20116;-69
2022/09/15 09:02:22;;;;;;;0.30;0.30;;;;;;;;;;5044558;28;20040;-67
2022/09/15 09:05:07;;;;;;;0.20;0.20;;;;;;;;;;5043428;28;20037;-68
2022/09/15 09:07:37;;;;;;;0.20;0.20;;;;;;;;;;5039292;28;20036;-70
2022/09/15 09:10:14;;;;;;;0.20;0.20;;;;;;;;;;5046045;28;20063;-68
2022/09/15 09:12:58;;;;;;;0.75;0.50;;;;;;;;;;5036290;28;20037;-70
2022/09/15 09:15:30;;;;;;;0.40;0.40;;;;;;;;;;5037653;28;20527;-69
2022/09/15 09:18:12;;;;;;;0.30;0.30;;;;;;;;;;5038837;28;20048;-68
2022/09/15 09:20:56;;;;;;;0.10;0.10;;;;;;;;;;5037907;28;20074;-69
2022/09/15 09:23:23;;;;;;;0.20;0.20;;;;;;;;;;5041098;28;20040;-69
2022/09/15 09:25:49;;;;;;;0.30;0.30;;;;;;;;;;5048210;28;20364;-68
2022/09/15 09:28:35;;;;;;;0.20;0.20;;;;;;;;;;5048811;28;20025;-68
2022/09/15 09:31:05;;;;;;;1.75;1.17;;;;;;;;;;5047852;28;20483;-68
2022/09/15 09:33:47;;;;;;;0.25;0.25;;;;;;;;;;5048478;28;20049;-68
2022/09/15 09:36:13;;;;;;;0.85;0.55;;;;;;;;;;5041703;28;20356;-68
2022/09/15 09:38:39;;;;;;;0.20;0.20;;;;;;;;;;5048579;28;20025;-68
2022/09/15 09:41:24;;;;;;;0.68;0.50;;;;;;;;;;5034569;28;20028;-68
2022/09/15 09:43:51;;;;;;;0.35;0.35;;;;;;;;;;5050989;28;20097;-68
2022/09/15 09:46:17;;;;;;;0.35;0.30;;;;;;;;;;5041892;28;20025;-68
2022/09/15 09:48:46;;;;;;;0.52;0.52;;;;;;;;;;5042209;28;20029;-69
2022/09/15 09:51:30;;;;;;;0.30;0.30;;;;;;;;;;5033828;28;20039;-70
2022/09/15 09:53:55;;;;;;;0.32;0.32;;;;;;;;;;5033156;28;20679;-68
2022/09/15 09:56:23;;;;;;;0.20;0.20;;;;;;;;;;5037854;28;20029;-70
2022/09/15 09:58:48;;;;;;;0.30;0.30;;;;;;;;;;5051276;28;20032;-69
2022/09/15 10:01:15;;;;;;;0.28;0.28;;;;;;;;;;5053440;28;20052;-70
2022/09/15 10:03:42;;;;;;;0.20;0.20;;;;;;;;;;5055017;28;20718;-69
2022/09/15 10:06:10;;;;;;;0.20;0.20;;;;;;;;;;5047240;28;20039;-70
2022/09/15 10:08:36;;;;;;;0.20;0.20;;;;;;;;;;5043571;28;20044;-69
2022/09/15 10:11:06;;;;;;;0.90;0.63;;;;;;;;;;5031117;28;20029;-70
2022/09/15 10:13:33;;;;;;;0.52;0.43;;;;;;;;;;5048492;28;20028;-69
2022/09/15 10:15:59;;;;;;;0.30;0.30;;;;;;;;;;5048099;28;20357;-68
2022/09/15 10:18:31;;;;;;;1.33;0.98;;;;;;;;;;5047989;28;20044;-69
2022/09/15 10:20:57;;;;;;;0.50;0.50;;;;;;;;;;5047736;28;20694;-70
2022/09/15 10:23:27;;;;;;;1.20;1.17;;;;;;;;;;5045102;28;20567;-70
2022/09/15 10:25:54;;;;;;;2.10;1.58;;;;;;;;;;5046900;28;20033;-68
2022/09/15 10:28:21;;;;;;;0.20;0.20;;;;;;;;;;5046023;28;20110;-69
2022/09/15 10:31:13;;;;;;;0.20;0.20;;;;;;;;;;5046772;28;20048;-70
2022/09/15 10:33:42;;;;;;;0.38;0.38;;;;;;;;;;5044977;28;20287;-71
2022/09/15 10:36:18;;;;;;;0.22;0.22;;;;;;;;;;5046174;28;20033;-69
2022/09/15 10:38:59;;;;;;;0.32;0.30;;;;;;;;;;5030382;28;20071;-71
2022/09/15 10:41:26;;;;;;;0.52;0.50;;;;;;;;;;5049792;28;20083;-70
2022/09/15 10:43:54;;;;;;;2.13;0.60;;;;;;;;;;5049340;28;20032;-70
2022/09/15 10:46:39;;;;;;;0.22;0.22;;;;;;;;;;5049358;28;20074;-69
2022/09/15 10:49:19;;;;;;;0.35;0.35;;;;;;;;;;5048969;28;20029;-69
2022/09/15 10:51:45;;;;;;;1.17;0.47;;;;;;;;;;5048879;28;20051;-70
2022/09/15 10:54:25;;;;;;;0.30;0.30;;;;;;;;;;5049464;28;20029;-70
2022/09/15 10:56:55;;;;;;;0.32;0.32;;;;;;;;;;5049398;28;20025;-70
2022/09/15 10:59:36;;;;;;;0.30;0.30;;;;;;;;;;5049093;28;20078;-69
2022/09/15 11:02:13;;;;;;;0.20;0.20;;;;;;;;;;5049101;28;20098;-69
2022/09/15 11:04:39;;;;;;;0.30;0.30;;;;;;;;;;5049337;28;20025;-69
2022/09/15 11:07:10;;;;;;;1.17;0.63;;;;;;;;;;5031105;28;20021;-71
2022/09/15 11:09:40;;;;;;;0.30;0.30;;;;;;;;;;5048524;28;20131;-69
2022/09/15 11:12:24;;;;;;;0.43;0.43;;;;;;;;;;5048215;28;20033;-70
2022/09/15 11:14:52;;;;;;;0.80;0.80;;;;;;;;;;5048826;28;20555;-69
2022/09/15 11:17:25;;;;;;;0.27;0.27;;;;;;;;;;5031024;28;20029;-70
2022/09/15 11:20:10;;;;;;;0.90;0.52;;;;;;;;;;5048567;28;20033;-70
2022/09/15 11:22:37;;;;;;;0.68;0.47;;;;;;;;;;5049009;28;20404;-69
2022/09/15 11:25:09;;;;;;;0.55;0.50;;;;;;;;;;5048399;28;20040;-69
2022/09/15 11:27:38;;;;;;;0.43;0.43;;;;;;;;;;5048775;28;20040;-69
2022/09/15 11:30:13;;;;;;;0.55;0.55;;;;;;;;;;5048563;28;20460;-70
2022/09/15 11:32:47;;;;;;;0.40;0.40;;;;;;;;;;5048493;28;20417;-70
2022/09/15 11:35:13;;;;;;;0.32;0.32;;;;;;;;;;5048205;28;20125;-71
2022/09/15 11:37:40;;;;;;;0.50;0.50;;;;;;;;;;5048606;28;20160;-70
2022/09/15 11:40:12;;;;;;;5.05;0.50;;;;;;;;;;5030287;28;20948;-69
2022/09/15 11:42:44;;;;;;;0.50;0.50;;;;;;;;;;5048414;28;20021;-69
2022/09/15 11:45:19;;;;;;;2.38;1.02;;;;;;;;;;5048394;28;20029;-69
2022/09/15 11:47:48;;;;;;;0.40;0.40;;;;;;;;;;5047641;28;20029;-69
2022/09/15 11:50:23;;;;;;;0.30;0.30;;;;;;;;;;5048361;28;20044;-70
2022/09/15 11:52:58;;;;;;;0.25;0.25;;;;;;;;;;5047877;28;20484;-70
2022/09/15 11:55:34;;;;;;;0.55;0.55;;;;;;;;;;5047286;28;20076;-70
2022/09/15 11:58:05;;;;;;;4.15;1.75;;;;;;;;;;5047609;28;20029;-69
2022/09/15 12:00:32;;;;;;;0.35;0.30;;;;;;;;;;5042308;28;20029;-70
2022/09/15 12:03:11;;;;;;;0.30;0.30;;;;;;;;;;5030914;28;20028;-71
2022/09/15 12:05:57;;;;;;;0.30;0.30;;;;;;;;;;5037408;28;20057;-69
2022/09/15 12:08:54;;;;;;;0.73;0.50;;;;;;;;;;5013597;28;20038;-69
2022/09/15 12:11:22;;;;;;;1.17;0.70;;;;;;;;;;4991479;28;20045;-68
2022/09/15 12:13:47;;;;;;;0.30;0.30;;;;;;;;;;5046261;28;20391;-70
2022/09/15 12:16:14;;;;;;;1.55;0.80;;;;;;;;;;5043661;28;20033;-71
2022/09/15 12:18:41;;;;;;;0.52;0.50;;;;;;;;;;5009864;28;20124;-70
2022/09/15 12:21:19;;;;;;;3.30;0.77;;;;;;;;;;5034875;28;20025;-70
2022/09/15 12:23:44;;;;;;;2.53;0.50;;;;;;;;;;5029521;28;20067;-70
2022/09/15 12:26:13;;;;;;;0.28;0.28;;;;;;;;;;5025961;28;20501;-71
2022/09/15 12:28:38;;;;;;;;;;;;;;;;;;5027237;28;20033;-70
2022/09/15 12:31:42;;;;;;;0.27;0.27;;;;;;;;;;5027270;28;19923;-69
2022/09/15 12:34:26;;;;;;;0.77;0.77;;;;;;;;;;4927519;29;20290;-69
2022/09/15 12:36:52;;;;;;;3.25;1.48;;;;;;;;;;4926790;29;20048;-71
2022/09/15 12:39:21;;;;;;;0.73;0.52;;;;;;;;;;4985841;28;20060;-69
2022/09/15 12:41:47;;;;;;;4.23;0.60;;;;;;;;;;5027051;28;20034;-70
2022/09/15 12:44:25;;;;;;;0.82;0.73;;;;;;;;;;5027250;28;20033;-70
2022/09/15 12:46:53;;;;;;;0.52;0.52;;;;;;;;;;5009235;28;20184;-69
2022/09/15 12:49:22;;;;;;;0.65;0.32;;;;;;;;;;5027165;28;20034;-69
2022/09/15 12:51:48;;;;;;;2.75;2.40;;;;;;;;;;5026873;28;20045;-69
2022/09/15 12:54:25;;;;;;;1.40;0.95;;;;;;;;;;5027437;28;20037;-70
2022/09/15 12:56:51;;;;;;;0.45;0.45;;;;;;;;;;5027390;28;20026;-69
2022/09/15 12:59:20;;;;;;;3.03;2.58;;;;;;;;;;5026725;28;20029;-69
2022/09/15 13:01:47;;;;;;;0.20;0.20;;;;;;;;;;5026062;28;20100;-69
2022/09/15 13:04:22;;;;;;;0.75;0.73;;;;;;;;;;5009670;28;20429;-70
2022/09/15 13:07:08;;;;;;;0.47;0.40;;;;;;;;;;5034660;28;20109;-72
2022/09/15 13:09:42;;;;;;;0.40;0.30;;;;;;;;;;5032049;28;20688;-76
2022/09/15 13:12:09;;;;;;;0.77;0.43;;;;;;;;;;5008762;28;21940;-70
2022/09/15 13:14:38;;;;;;;0.50;0.50;;;;;;;;;;5042567;28;20036;-77
2022/09/15 13:17:21;;;;;;;1.20;0.90;;;;;;;;;;5051599;28;20048;-74
2022/09/15 13:19:49;;;;;;;5.32;1.77;;;;;;;;;;5018237;28;20041;-72
2022/09/15 13:22:25;;;;;;;0.43;0.40;;;;;;;;;;5052278;28;20031;-73
2022/09/15 13:25:06;;;;;;;0.40;0.30;;;;;;;;;;5018427;28;20061;-70
2022/09/15 13:27:58;;;;;;;0.30;0.30;;;;;;;;;;5053206;28;20029;-75
2022/09/15 13:30:39;;;;;;;0.40;0.40;;;;;;;;;;5049062;28;20435;-72
2022/09/15 13:33:14;;;;;;;0.20;0.20;;;;;;;;;;5052954;28;20472;-71
2022/09/15 13:35:42;;;;;;;0.20;0.20;;;;;;;;;;5050851;28;20392;-70
2022/09/15 13:38:40;;;;;;;0.52;0.40;;;;;;;;;;5052041;28;20033;-73
2022/09/15 13:41:18;;;;;;;0.32;0.32;;;;;;;;;;5018064;28;20045;-72
2022/09/15 13:43:58;;;;;;;0.47;0.47;;;;;;;;;;5051686;28;20041;-72
2022/09/15 13:46:27;;;;;;;0.95;0.57;;;;;;;;;;5051639;28;20071;-75
2022/09/15 13:49:19;;;;;;;0.68;0.40;;;;;;;;;;5049694;28;20124;-74
2022/09/15 13:51:50;;;;;;;5.72;2.08;;;;;;;;;;5048835;28;20140;-73
2022/09/15 13:54:18;;;;;;;0.30;0.30;;;;;;;;;;5048661;28;20033;-72
2022/09/15 13:56:44;;;;;;;0.40;0.40;;;;;;;;;;5017031;28;20052;-71
2022/09/15 13:59:25;;;;;;;1.23;0.35;;;;;;;;;;5018087;28;20429;-73
2022/09/15 14:01:51;;;;;;;0.20;0.20;;;;;;;;;;5052677;28;20094;-73
2022/09/15 14:04:21;;;;;;;0.60;0.60;;;;;;;;;;5035367;28;20025;-72
2022/09/15 14:06:52;;;;;;;0.55;0.45;;;;;;;;;;5052377;28;20108;-74
2022/09/15 14:09:19;;;;;;;0.20;0.20;;;;;;;;;;5032032;28;20136;-73
2022/09/15 14:11:50;;;;;;;0.30;0.30;;;;;;;;;;5017495;28;20087;-74
2022/09/15 14:14:34;;;;;;;0.40;0.40;;;;;;;;;;5034821;28;20043;-71
2022/09/15 14:17:00;;;;;;;0.20;0.20;;;;;;;;;;5046569;28;20024;-72
2022/09/15 14:19:35;;;;;;;0.30;0.30;;;;;;;;;;5033898;28;20055;-73
2022/09/15 14:22:14;;;;;;;0.30;0.30;;;;;;;;;;5051562;28;20033;-73
2022/09/15 14:24:40;;;;;;;0.22;0.22;;;;;;;;;;5040286;28;20491;-73
2022/09/15 14:27:07;;;;;;;0.43;0.43;;;;;;;;;;5033435;28;20025;-73
2022/09/15 14:29:37;;;;;;;0.30;0.30;;;;;;;;;;5041931;28;20038;-75
2022/09/15 14:32:03;;;;;;;0.30;0.30;;;;;;;;;;5046749;28;20118;-76
2022/09/15 14:34:30;;;;;;;0.25;0.25;;;;;;;;;;5050257;28;20080;-72
2022/09/15 14:36:59;;;;;;;0.20;0.20;;;;;;;;;;5051796;28;20033;-74
2022/09/15 14:39:24;;;;;;;0.40;0.40;;;;;;;;;;5029922;28;20114;-75
2022/09/15 14:41:50;;;;;;;0.30;0.30;;;;;;;;;;5048275;28;20025;-72
2022/09/15 14:44:26;;;;;;;0.30;0.30;;;;;;;;;;5048125;28;20365;-71
2022/09/15 14:46:53;;;;;;;0.20;0.20;;;;;;;;;;5013696;28;20022;-73
2022/09/15 14:49:18;;;;;;;0.30;0.30;;;;;;;;;;5048007;28;20108;-73
2022/09/15 14:51:44;;;;;;;0.20;0.20;;;;;;;;;;5029649;28;20128;-73
2022/09/15 14:54:17;;;;;;;0.30;0.30;;;;;;;;;;5013327;28;20025;-72
2022/09/15 14:56:43;;;;;;;0.50;0.50;;;;;;;;;;5048296;28;20068;-72